sensor_id;sensor_type;location;lat;lon;timestamp;P1;durP1;ratioP1;P2;durP2;ratioP2
69629;SDS011;56857;52.212;5.496;2024-01-25T00:01:58;23.73;;;4.75;;
69629;SDS011;56857;52.212;5.496;2024-01-25T00:04:23;23.45;;;4.10;;
69629;SDS011;56857;52.212;5.496;2024-01-25T00:06:48;18.85;;;3.92;;
69629;SDS011;56857;52.212;5.496;2024-01-25T00:09:14;24.23;;;4.20;;
69629;SDS011;56857;52.212;5.496;2024-01-25T00:11:39;36.78;;;4.43;;
69629;SDS011;56857;52.212;5.496;2024-01-25T00:14:04;26.73;;;4.57;;
69629;SDS011;56857;52.212;5.496;2024-01-25T00:16:30;22.05;;;4.20;;
69629;SDS011;56857;52.212;5.496;2024-01-25T00:18:55;24.27;;;4.47;;
69629;SDS011;56857;52.212;5.496;2024-01-25T00:21:21;23.25;;;4.47;;
69629;SDS011;56857;52.212;5.496;2024-01-25T00:23:46;21.77;;;4.75;;
69629;SDS011;56857;52.212;5.496;2024-01-25T00:26:12;33.85;;;5.15;;
69629;SDS011;56857;52.212;5.496;2024-01-25T00:28:37;25.65;;;4.55;;
69629;SDS011;56857;52.212;5.496;2024-01-25T00:31:03;27.27;;;4.45;;
69629;SDS011;56857;52.212;5.496;2024-01-25T00:33:28;25.13;;;4.50;;
69629;SDS011;56857;52.212;5.496;2024-01-25T00:35:54;23.58;;;4.97;;
69629;SDS011;56857;52.212;5.496;2024-01-25T00:38:20;23.38;;;3.78;;
69629;SDS011;56857;52.212;5.496;2024-01-25T00:40:46;30.17;;;4.93;;
69629;SDS011;56857;52.212;5.496;2024-01-25T00:43:11;20.42;;;4.20;;
69629;SDS011;56857;52.212;5.496;2024-01-25T00:45:37;24.05;;;4.22;;
69629;SDS011;56857;52.212;5.496;2024-01-25T00:48:02;22.77;;;3.92;;
69629;SDS011;56857;52.212;5.496;2024-01-25T00:50:28;25.77;;;4.30;;
69629;SDS011;56857;52.212;5.496;2024-01-25T00:52:54;29.48;;;4.95;;
69629;SDS011;56857;52.212;5.496;2024-01-25T00:55:20;22.25;;;4.22;;
69629;SDS011;56857;52.212;5.496;2024-01-25T00:57:45;22.83;;;3.85;;
69629;SDS011;56857;52.212;5.496;2024-01-25T01:00:11;19.33;;;4.22;;
69629;SDS011;56857;52.212;5.496;2024-01-25T01:02:42;17.48;;;4.57;;
69629;SDS011;56857;52.212;5.496;2024-01-25T01:07:35;26.02;;;5.05;;
69629;SDS011;56857;52.212;5.496;2024-01-25T01:10:00;22.25;;;4.88;;
69629;SDS011;56857;52.212;5.496;2024-01-25T01:12:26;26.80;;;4.15;;
69629;SDS011;56857;52.212;5.496;2024-01-25T01:14:51;22.80;;;4.77;;
69629;SDS011;56857;52.212;5.496;2024-01-25T01:17:16;24.10;;;4.20;;
69629;SDS011;56857;52.212;5.496;2024-01-25T01:19:42;23.40;;;4.93;;
69629;SDS011;56857;52.212;5.496;2024-01-25T01:22:07;20.70;;;3.40;;
69629;SDS011;56857;52.212;5.496;2024-01-25T01:24:32;25.58;;;4.72;;
69629;SDS011;56857;52.212;5.496;2024-01-25T01:26:57;25.35;;;4.45;;
69629;SDS011;56857;52.212;5.496;2024-01-25T01:29:23;21.40;;;4.03;;
69629;SDS011;56857;52.212;5.496;2024-01-25T01:31:48;26.42;;;4.85;;
69629;SDS011;56857;52.212;5.496;2024-01-25T01:34:13;21.10;;;3.67;;
69629;SDS011;56857;52.212;5.496;2024-01-25T01:36:39;22.00;;;3.65;;
69629;SDS011;56857;52.212;5.496;2024-01-25T01:39:04;24.90;;;6.10;;
69629;SDS011;56857;52.212;5.496;2024-01-25T01:41:29;31.33;;;5.70;;
69629;SDS011;56857;52.212;5.496;2024-01-25T01:43:55;29.67;;;4.97;;
69629;SDS011;56857;52.212;5.496;2024-01-25T01:46:24;22.95;;;4.60;;
69629;SDS011;56857;52.212;5.496;2024-01-25T01:49:00;20.05;;;3.35;;
69629;SDS011;56857;52.212;5.496;2024-01-25T01:51:26;24.38;;;4.55;;
69629;SDS011;56857;52.212;5.496;2024-01-25T01:53:52;22.00;;;3.90;;
69629;SDS011;56857;52.212;5.496;2024-01-25T01:56:18;28.23;;;4.25;;
69629;SDS011;56857;52.212;5.496;2024-01-25T01:58:44;27.35;;;5.38;;
69629;SDS011;56857;52.212;5.496;2024-01-25T02:01:13;18.20;;;4.10;;
69629;SDS011;56857;52.212;5.496;2024-01-25T02:03:38;27.35;;;4.25;;
69629;SDS011;56857;52.212;5.496;2024-01-25T02:06:05;24.05;;;3.90;;
69629;SDS011;56857;52.212;5.496;2024-01-25T02:08:31;26.30;;;4.00;;
69629;SDS011;56857;52.212;5.496;2024-01-25T02:10:57;32.83;;;5.15;;
69629;SDS011;56857;52.212;5.496;2024-01-25T02:13:23;29.60;;;4.50;;
69629;SDS011;56857;52.212;5.496;2024-01-25T02:15:48;21.63;;;4.38;;
69629;SDS011;56857;52.212;5.496;2024-01-25T02:18:13;30.40;;;4.88;;
69629;SDS011;56857;52.212;5.496;2024-01-25T02:20:39;21.73;;;4.50;;
69629;SDS011;56857;52.212;5.496;2024-01-25T02:23:04;27.85;;;4.53;;
69629;SDS011;56857;52.212;5.496;2024-01-25T02:25:31;22.92;;;4.75;;
69629;SDS011;56857;52.212;5.496;2024-01-25T02:27:56;23.42;;;4.00;;
69629;SDS011;56857;52.212;5.496;2024-01-25T02:30:22;35.78;;;4.80;;
69629;SDS011;56857;52.212;5.496;2024-01-25T02:32:47;22.52;;;3.67;;
69629;SDS011;56857;52.212;5.496;2024-01-25T02:35:12;22.83;;;4.45;;
69629;SDS011;56857;52.212;5.496;2024-01-25T02:37:37;28.38;;;4.60;;
69629;SDS011;56857;52.212;5.496;2024-01-25T02:40:04;22.38;;;4.05;;
69629;SDS011;56857;52.212;5.496;2024-01-25T02:42:29;27.33;;;4.55;;
69629;SDS011;56857;52.212;5.496;2024-01-25T02:44:55;23.13;;;3.55;;
69629;SDS011;56857;52.212;5.496;2024-01-25T02:47:20;18.85;;;4.45;;
69629;SDS011;56857;52.212;5.496;2024-01-25T02:49:45;25.90;;;4.80;;
69629;SDS011;56857;52.212;5.496;2024-01-25T02:52:11;20.77;;;3.65;;
69629;SDS011;56857;52.212;5.496;2024-01-25T02:54:36;25.75;;;4.10;;
69629;SDS011;56857;52.212;5.496;2024-01-25T02:57:01;30.63;;;3.90;;
69629;SDS011;56857;52.212;5.496;2024-01-25T02:59:27;21.60;;;4.65;;
69629;SDS011;56857;52.212;5.496;2024-01-25T03:01:53;19.23;;;4.85;;
69629;SDS011;56857;52.212;5.496;2024-01-25T03:04:19;22.52;;;4.32;;
69629;SDS011;56857;52.212;5.496;2024-01-25T03:06:45;32.95;;;4.78;;
69629;SDS011;56857;52.212;5.496;2024-01-25T03:09:10;20.33;;;3.78;;
69629;SDS011;56857;52.212;5.496;2024-01-25T03:11:36;22.35;;;4.63;;
69629;SDS011;56857;52.212;5.496;2024-01-25T03:14:02;21.63;;;3.95;;
69629;SDS011;56857;52.212;5.496;2024-01-25T03:16:27;30.83;;;5.38;;
69629;SDS011;56857;52.212;5.496;2024-01-25T03:18:52;22.60;;;3.67;;
69629;SDS011;56857;52.212;5.496;2024-01-25T03:21:18;22.83;;;4.40;;
69629;SDS011;56857;52.212;5.496;2024-01-25T03:23:44;22.35;;;4.38;;
69629;SDS011;56857;52.212;5.496;2024-01-25T03:26:09;23.02;;;3.58;;
69629;SDS011;56857;52.212;5.496;2024-01-25T03:28:34;23.87;;;4.70;;
69629;SDS011;56857;52.212;5.496;2024-01-25T03:31:00;20.48;;;3.60;;
69629;SDS011;56857;52.212;5.496;2024-01-25T03:33:25;27.45;;;3.58;;
69629;SDS011;56857;52.212;5.496;2024-01-25T03:35:51;28.50;;;5.40;;
69629;SDS011;56857;52.212;5.496;2024-01-25T03:38:16;27.80;;;4.20;;
69629;SDS011;56857;52.212;5.496;2024-01-25T03:40:41;22.80;;;4.32;;
69629;SDS011;56857;52.212;5.496;2024-01-25T03:43:07;19.85;;;3.88;;
69629;SDS011;56857;52.212;5.496;2024-01-25T03:45:32;21.45;;;3.85;;
69629;SDS011;56857;52.212;5.496;2024-01-25T03:47:57;25.20;;;5.50;;
69629;SDS011;56857;52.212;5.496;2024-01-25T03:50:23;21.98;;;4.10;;
69629;SDS011;56857;52.212;5.496;2024-01-25T03:52:48;26.73;;;5.20;;
69629;SDS011;56857;52.212;5.496;2024-01-25T03:55:13;27.27;;;5.50;;
69629;SDS011;56857;52.212;5.496;2024-01-25T03:57:39;27.08;;;4.28;;
69629;SDS011;56857;52.212;5.496;2024-01-25T04:00:04;17.93;;;3.43;;
69629;SDS011;56857;52.212;5.496;2024-01-25T04:02:30;25.95;;;3.65;;
69629;SDS011;56857;52.212;5.496;2024-01-25T04:04:56;25.80;;;4.07;;
69629;SDS011;56857;52.212;5.496;2024-01-25T04:07:21;23.30;;;4.55;;
69629;SDS011;56857;52.212;5.496;2024-01-25T04:09:46;19.20;;;3.92;;
69629;SDS011;56857;52.212;5.496;2024-01-25T04:12:11;20.08;;;4.43;;
69629;SDS011;56857;52.212;5.496;2024-01-25T04:14:38;27.20;;;4.18;;
69629;SDS011;56857;52.212;5.496;2024-01-25T04:17:03;24.35;;;4.28;;
69629;SDS011;56857;52.212;5.496;2024-01-25T04:19:29;23.65;;;3.97;;
69629;SDS011;56857;52.212;5.496;2024-01-25T04:21:54;24.33;;;5.20;;
69629;SDS011;56857;52.212;5.496;2024-01-25T04:24:19;28.88;;;4.38;;
69629;SDS011;56857;52.212;5.496;2024-01-25T04:26:45;23.98;;;4.60;;
69629;SDS011;56857;52.212;5.496;2024-01-25T04:29:10;21.85;;;3.95;;
69629;SDS011;56857;52.212;5.496;2024-01-25T04:31:41;27.02;;;5.18;;
69629;SDS011;56857;52.212;5.496;2024-01-25T04:34:07;33.28;;;5.75;;
69629;SDS011;56857;52.212;5.496;2024-01-25T04:36:33;27.60;;;4.70;;
69629;SDS011;56857;52.212;5.496;2024-01-25T04:38:58;37.70;;;5.40;;
69629;SDS011;56857;52.212;5.496;2024-01-25T04:41:23;22.37;;;4.07;;
69629;SDS011;56857;52.212;5.496;2024-01-25T04:43:49;24.58;;;4.25;;
69629;SDS011;56857;52.212;5.496;2024-01-25T04:46:14;20.33;;;4.57;;
69629;SDS011;56857;52.212;5.496;2024-01-25T04:48:39;23.65;;;4.82;;
69629;SDS011;56857;52.212;5.496;2024-01-25T04:51:05;25.67;;;4.93;;
69629;SDS011;56857;52.212;5.496;2024-01-25T04:53:30;28.83;;;4.95;;
69629;SDS011;56857;52.212;5.496;2024-01-25T04:55:55;21.17;;;4.88;;
69629;SDS011;56857;52.212;5.496;2024-01-25T04:58:21;27.42;;;4.35;;
69629;SDS011;56857;52.212;5.496;2024-01-25T05:00:46;21.77;;;4.23;;
69629;SDS011;56857;52.212;5.496;2024-01-25T05:03:11;24.57;;;4.63;;
69629;SDS011;56857;52.212;5.496;2024-01-25T05:05:36;28.87;;;4.93;;
69629;SDS011;56857;52.212;5.496;2024-01-25T05:08:02;18.80;;;3.47;;
69629;SDS011;56857;52.212;5.496;2024-01-25T05:10:27;22.55;;;4.10;;
69629;SDS011;56857;52.212;5.496;2024-01-25T05:12:52;29.05;;;4.45;;
69629;SDS011;56857;52.212;5.496;2024-01-25T05:15:18;27.20;;;4.83;;
69629;SDS011;56857;52.212;5.496;2024-01-25T05:17:43;29.50;;;5.10;;
69629;SDS011;56857;52.212;5.496;2024-01-25T05:20:08;25.70;;;4.63;;
69629;SDS011;56857;52.212;5.496;2024-01-25T05:22:34;20.60;;;4.63;;
69629;SDS011;56857;52.212;5.496;2024-01-25T05:25:00;21.08;;;4.00;;
69629;SDS011;56857;52.212;5.496;2024-01-25T05:27:26;19.00;;;3.90;;
69629;SDS011;56857;52.212;5.496;2024-01-25T05:29:51;24.80;;;3.78;;
69629;SDS011;56857;52.212;5.496;2024-01-25T05:32:17;18.77;;;4.50;;
69629;SDS011;56857;52.212;5.496;2024-01-25T05:34:42;23.47;;;4.43;;
69629;SDS011;56857;52.212;5.496;2024-01-25T05:37:07;30.75;;;5.30;;
69629;SDS011;56857;52.212;5.496;2024-01-25T05:39:33;24.37;;;5.07;;
69629;SDS011;56857;52.212;5.496;2024-01-25T05:41:58;30.35;;;4.95;;
69629;SDS011;56857;52.212;5.496;2024-01-25T05:44:23;24.13;;;5.73;;
69629;SDS011;56857;52.212;5.496;2024-01-25T05:46:48;26.83;;;6.05;;
69629;SDS011;56857;52.212;5.496;2024-01-25T05:49:14;25.63;;;4.67;;
69629;SDS011;56857;52.212;5.496;2024-01-25T05:51:39;29.42;;;5.13;;
69629;SDS011;56857;52.212;5.496;2024-01-25T05:54:04;22.63;;;4.47;;
69629;SDS011;56857;52.212;5.496;2024-01-25T05:56:30;22.80;;;4.93;;
69629;SDS011;56857;52.212;5.496;2024-01-25T05:58:55;39.13;;;6.43;;
69629;SDS011;56857;52.212;5.496;2024-01-25T06:01:20;26.55;;;5.18;;
69629;SDS011;56857;52.212;5.496;2024-01-25T06:03:46;22.65;;;4.90;;
69629;SDS011;56857;52.212;5.496;2024-01-25T06:06:11;18.25;;;4.55;;
69629;SDS011;56857;52.212;5.496;2024-01-25T06:08:36;29.43;;;5.40;;
69629;SDS011;56857;52.212;5.496;2024-01-25T06:11:02;28.33;;;5.38;;
69629;SDS011;56857;52.212;5.496;2024-01-25T06:13:28;27.13;;;5.35;;
69629;SDS011;56857;52.212;5.496;2024-01-25T06:15:53;30.00;;;5.10;;
69629;SDS011;56857;52.212;5.496;2024-01-25T06:18:20;25.02;;;5.13;;
69629;SDS011;56857;52.212;5.496;2024-01-25T06:20:46;23.65;;;5.78;;
69629;SDS011;56857;52.212;5.496;2024-01-25T06:23:11;24.55;;;5.03;;
69629;SDS011;56857;52.212;5.496;2024-01-25T06:25:36;30.70;;;5.93;;
69629;SDS011;56857;52.212;5.496;2024-01-25T06:28:02;23.52;;;5.32;;
69629;SDS011;56857;52.212;5.496;2024-01-25T06:30:27;25.70;;;5.32;;
69629;SDS011;56857;52.212;5.496;2024-01-25T06:32:52;23.48;;;4.70;;
69629;SDS011;56857;52.212;5.496;2024-01-25T06:35:18;23.73;;;5.47;;
69629;SDS011;56857;52.212;5.496;2024-01-25T06:37:43;28.83;;;5.83;;
69629;SDS011;56857;52.212;5.496;2024-01-25T06:40:08;20.42;;;5.82;;
69629;SDS011;56857;52.212;5.496;2024-01-25T06:42:34;22.17;;;4.43;;
69629;SDS011;56857;52.212;5.496;2024-01-25T06:45:01;23.65;;;4.45;;
69629;SDS011;56857;52.212;5.496;2024-01-25T06:47:26;18.70;;;3.88;;
69629;SDS011;56857;52.212;5.496;2024-01-25T06:49:51;24.00;;;5.80;;
69629;SDS011;56857;52.212;5.496;2024-01-25T06:52:17;23.75;;;5.65;;
69629;SDS011;56857;52.212;5.496;2024-01-25T06:54:43;26.85;;;4.78;;
69629;SDS011;56857;52.212;5.496;2024-01-25T06:57:08;20.20;;;4.45;;
69629;SDS011;56857;52.212;5.496;2024-01-25T06:59:34;27.83;;;5.38;;
69629;SDS011;56857;52.212;5.496;2024-01-25T07:01:59;30.23;;;5.22;;
69629;SDS011;56857;52.212;5.496;2024-01-25T07:04:24;31.40;;;5.07;;
69629;SDS011;56857;52.212;5.496;2024-01-25T07:06:50;23.00;;;4.55;;
69629;SDS011;56857;52.212;5.496;2024-01-25T07:09:15;22.95;;;5.30;;
69629;SDS011;56857;52.212;5.496;2024-01-25T07:11:40;26.48;;;4.32;;
69629;SDS011;56857;52.212;5.496;2024-01-25T07:14:06;22.87;;;4.73;;
69629;SDS011;56857;52.212;5.496;2024-01-25T07:16:32;29.23;;;6.22;;
69629;SDS011;56857;52.212;5.496;2024-01-25T07:18:57;35.50;;;6.17;;
69629;SDS011;56857;52.212;5.496;2024-01-25T07:21:22;27.58;;;5.57;;
69629;SDS011;56857;52.212;5.496;2024-01-25T07:23:48;26.03;;;5.50;;
69629;SDS011;56857;52.212;5.496;2024-01-25T07:26:17;26.20;;;5.10;;
69629;SDS011;56857;52.212;5.496;2024-01-25T07:28:45;16.95;;;4.43;;
69629;SDS011;56857;52.212;5.496;2024-01-25T07:31:10;30.60;;;7.63;;
69629;SDS011;56857;52.212;5.496;2024-01-25T07:33:35;31.48;;;7.35;;
69629;SDS011;56857;52.212;5.496;2024-01-25T07:36:00;23.00;;;6.22;;
69629;SDS011;56857;52.212;5.496;2024-01-25T07:38:27;28.07;;;5.33;;
69629;SDS011;56857;52.212;5.496;2024-01-25T07:40:52;22.77;;;5.40;;
69629;SDS011;56857;52.212;5.496;2024-01-25T07:43:18;35.23;;;7.83;;
69629;SDS011;56857;52.212;5.496;2024-01-25T07:45:43;46.28;;;10.63;;
69629;SDS011;56857;52.212;5.496;2024-01-25T07:48:08;27.87;;;9.10;;
69629;SDS011;56857;52.212;5.496;2024-01-25T07:50:34;37.70;;;6.85;;
69629;SDS011;56857;52.212;5.496;2024-01-25T07:52:59;27.57;;;6.70;;
69629;SDS011;56857;52.212;5.496;2024-01-25T07:55:24;19.98;;;5.10;;
69629;SDS011;56857;52.212;5.496;2024-01-25T07:57:51;27.57;;;5.90;;
69629;SDS011;56857;52.212;5.496;2024-01-25T08:00:16;34.35;;;6.57;;
69629;SDS011;56857;52.212;5.496;2024-01-25T08:02:42;24.90;;;6.25;;
69629;SDS011;56857;52.212;5.496;2024-01-25T08:05:07;25.75;;;6.47;;
69629;SDS011;56857;52.212;5.496;2024-01-25T08:07:33;32.72;;;7.18;;
69629;SDS011;56857;52.212;5.496;2024-01-25T08:09:58;30.08;;;8.55;;
69629;SDS011;56857;52.212;5.496;2024-01-25T08:12:24;33.20;;;6.93;;
69629;SDS011;56857;52.212;5.496;2024-01-25T08:14:50;27.02;;;7.43;;
69629;SDS011;56857;52.212;5.496;2024-01-25T08:17:15;25.00;;;6.40;;
69629;SDS011;56857;52.212;5.496;2024-01-25T08:19:40;27.38;;;7.13;;
69629;SDS011;56857;52.212;5.496;2024-01-25T08:22:06;29.20;;;6.75;;
69629;SDS011;56857;52.212;5.496;2024-01-25T08:24:31;25.17;;;6.18;;
69629;SDS011;56857;52.212;5.496;2024-01-25T08:26:57;30.55;;;8.73;;
69629;SDS011;56857;52.212;5.496;2024-01-25T08:29:22;22.35;;;7.20;;
69629;SDS011;56857;52.212;5.496;2024-01-25T08:31:47;33.65;;;6.68;;
69629;SDS011;56857;52.212;5.496;2024-01-25T08:34:13;25.77;;;5.90;;
69629;SDS011;56857;52.212;5.496;2024-01-25T08:36:38;29.17;;;7.50;;
69629;SDS011;56857;52.212;5.496;2024-01-25T08:39:03;22.00;;;6.30;;
69629;SDS011;56857;52.212;5.496;2024-01-25T08:41:29;33.88;;;7.35;;
69629;SDS011;56857;52.212;5.496;2024-01-25T08:43:54;25.30;;;6.20;;
69629;SDS011;56857;52.212;5.496;2024-01-25T08:46:19;24.20;;;6.53;;
69629;SDS011;56857;52.212;5.496;2024-01-25T08:48:45;21.00;;;6.28;;
69629;SDS011;56857;52.212;5.496;2024-01-25T08:51:11;24.25;;;7.00;;
69629;SDS011;56857;52.212;5.496;2024-01-25T08:53:37;25.25;;;6.53;;
69629;SDS011;56857;52.212;5.496;2024-01-25T08:56:02;21.38;;;6.85;;
69629;SDS011;56857;52.212;5.496;2024-01-25T08:58:28;26.58;;;6.90;;
69629;SDS011;56857;52.212;5.496;2024-01-25T09:00:53;27.67;;;8.32;;
69629;SDS011;56857;52.212;5.496;2024-01-25T09:03:18;42.90;;;7.90;;
69629;SDS011;56857;52.212;5.496;2024-01-25T09:05:44;37.47;;;6.80;;
69629;SDS011;56857;52.212;5.496;2024-01-25T09:08:09;30.23;;;7.07;;
69629;SDS011;56857;52.212;5.496;2024-01-25T09:10:34;29.13;;;8.10;;
69629;SDS011;56857;52.212;5.496;2024-01-25T09:13:00;25.80;;;7.90;;
69629;SDS011;56857;52.212;5.496;2024-01-25T09:15:25;28.73;;;9.80;;
69629;SDS011;56857;52.212;5.496;2024-01-25T09:17:50;36.83;;;10.05;;
69629;SDS011;56857;52.212;5.496;2024-01-25T09:20:15;32.63;;;10.60;;
69629;SDS011;56857;52.212;5.496;2024-01-25T09:22:41;35.40;;;11.18;;
69629;SDS011;56857;52.212;5.496;2024-01-25T09:25:06;34.15;;;9.57;;
69629;SDS011;56857;52.212;5.496;2024-01-25T09:27:31;27.90;;;10.15;;
69629;SDS011;56857;52.212;5.496;2024-01-25T09:29:57;34.97;;;10.25;;
69629;SDS011;56857;52.212;5.496;2024-01-25T09:32:22;33.70;;;9.63;;
69629;SDS011;56857;52.212;5.496;2024-01-25T09:34:48;28.40;;;9.10;;
69629;SDS011;56857;52.212;5.496;2024-01-25T09:37:13;32.13;;;9.55;;
69629;SDS011;56857;52.212;5.496;2024-01-25T09:39:38;35.55;;;9.38;;
69629;SDS011;56857;52.212;5.496;2024-01-25T09:42:04;26.73;;;8.77;;
69629;SDS011;56857;52.212;5.496;2024-01-25T09:44:29;31.30;;;8.85;;
69629;SDS011;56857;52.212;5.496;2024-01-25T09:46:55;31.88;;;8.32;;
69629;SDS011;56857;52.212;5.496;2024-01-25T09:49:20;29.55;;;8.15;;
69629;SDS011;56857;52.212;5.496;2024-01-25T09:51:46;27.25;;;7.75;;
69629;SDS011;56857;52.212;5.496;2024-01-25T09:54:12;32.88;;;7.85;;
69629;SDS011;56857;52.212;5.496;2024-01-25T09:56:38;34.17;;;7.93;;
69629;SDS011;56857;52.212;5.496;2024-01-25T09:59:06;33.78;;;7.90;;
69629;SDS011;56857;52.212;5.496;2024-01-25T10:01:32;27.58;;;6.18;;
69629;SDS011;56857;52.212;5.496;2024-01-25T10:03:58;25.80;;;6.60;;
69629;SDS011;56857;52.212;5.496;2024-01-25T10:06:23;29.55;;;8.15;;
69629;SDS011;56857;52.212;5.496;2024-01-25T10:08:48;25.70;;;7.10;;
69629;SDS011;56857;52.212;5.496;2024-01-25T10:11:14;27.67;;;5.82;;
69629;SDS011;56857;52.212;5.496;2024-01-25T10:13:44;32.42;;;7.22;;
69629;SDS011;56857;52.212;5.496;2024-01-25T10:16:14;25.88;;;5.63;;
69629;SDS011;56857;52.212;5.496;2024-01-25T10:18:41;21.92;;;5.95;;
69629;SDS011;56857;52.212;5.496;2024-01-25T10:21:09;22.50;;;5.35;;
69629;SDS011;56857;52.212;5.496;2024-01-25T10:23:35;34.28;;;7.03;;
69629;SDS011;56857;52.212;5.496;2024-01-25T10:26:00;28.70;;;6.43;;
69629;SDS011;56857;52.212;5.496;2024-01-25T10:28:25;21.67;;;6.65;;
69629;SDS011;56857;52.212;5.496;2024-01-25T10:30:51;24.38;;;5.75;;
69629;SDS011;56857;52.212;5.496;2024-01-25T10:33:16;30.35;;;7.40;;
69629;SDS011;56857;52.212;5.496;2024-01-25T10:35:43;28.17;;;6.20;;
69629;SDS011;56857;52.212;5.496;2024-01-25T10:38:11;22.83;;;4.97;;
69629;SDS011;56857;52.212;5.496;2024-01-25T10:40:37;27.00;;;6.18;;
69629;SDS011;56857;52.212;5.496;2024-01-25T10:43:04;27.00;;;5.63;;
69629;SDS011;56857;52.212;5.496;2024-01-25T10:45:29;26.42;;;5.78;;
69629;SDS011;56857;52.212;5.496;2024-01-25T10:47:54;23.10;;;6.05;;
69629;SDS011;56857;52.212;5.496;2024-01-25T10:50:21;27.85;;;5.75;;
69629;SDS011;56857;52.212;5.496;2024-01-25T10:52:46;32.85;;;6.22;;
69629;SDS011;56857;52.212;5.496;2024-01-25T10:55:13;28.20;;;5.97;;
69629;SDS011;56857;52.212;5.496;2024-01-25T10:57:43;26.25;;;5.43;;
69629;SDS011;56857;52.212;5.496;2024-01-25T11:00:10;22.48;;;5.40;;
69629;SDS011;56857;52.212;5.496;2024-01-25T11:02:38;29.60;;;6.10;;
69629;SDS011;56857;52.212;5.496;2024-01-25T11:05:16;23.02;;;5.43;;
69629;SDS011;56857;52.212;5.496;2024-01-25T11:12:57;24.25;;;4.90;;
69629;SDS011;56857;52.212;5.496;2024-01-25T11:15:35;34.60;;;6.30;;
69629;SDS011;56857;52.212;5.496;2024-01-25T11:18:01;26.02;;;6.10;;
69629;SDS011;56857;52.212;5.496;2024-01-25T11:20:28;34.75;;;6.47;;
69629;SDS011;56857;52.212;5.496;2024-01-25T11:22:58;27.42;;;6.78;;
69629;SDS011;56857;52.212;5.496;2024-01-25T11:25:27;28.75;;;6.95;;
69629;SDS011;56857;52.212;5.496;2024-01-25T11:27:53;37.50;;;6.85;;
69629;SDS011;56857;52.212;5.496;2024-01-25T11:30:19;34.53;;;7.18;;
69629;SDS011;56857;52.212;5.496;2024-01-25T11:32:45;25.88;;;5.72;;
69629;SDS011;56857;52.212;5.496;2024-01-25T11:35:11;18.88;;;5.47;;
69629;SDS011;56857;52.212;5.496;2024-01-25T11:37:36;28.17;;;6.30;;
69629;SDS011;56857;52.212;5.496;2024-01-25T11:40:02;24.27;;;5.55;;
69629;SDS011;56857;52.212;5.496;2024-01-25T11:42:27;35.53;;;5.68;;
69629;SDS011;56857;52.212;5.496;2024-01-25T11:44:53;24.70;;;5.82;;
69629;SDS011;56857;52.212;5.496;2024-01-25T11:47:18;27.73;;;6.00;;
69629;SDS011;56857;52.212;5.496;2024-01-25T11:49:43;27.80;;;5.45;;
69629;SDS011;56857;52.212;5.496;2024-01-25T11:52:09;28.23;;;6.28;;
69629;SDS011;56857;52.212;5.496;2024-01-25T11:54:34;30.38;;;7.18;;
69629;SDS011;56857;52.212;5.496;2024-01-25T11:57:00;28.10;;;7.00;;
69629;SDS011;56857;52.212;5.496;2024-01-25T11:59:25;25.23;;;6.13;;
69629;SDS011;56857;52.212;5.496;2024-01-25T12:01:50;29.58;;;6.10;;
69629;SDS011;56857;52.212;5.496;2024-01-25T12:04:16;21.20;;;6.63;;
69629;SDS011;56857;52.212;5.496;2024-01-25T12:06:41;33.50;;;5.88;;
69629;SDS011;56857;52.212;5.496;2024-01-25T12:09:09;26.55;;;5.32;;
69629;SDS011;56857;52.212;5.496;2024-01-25T12:11:35;35.22;;;7.47;;
69629;SDS011;56857;52.212;5.496;2024-01-25T12:14:01;29.65;;;6.50;;
69629;SDS011;56857;52.212;5.496;2024-01-25T12:16:26;27.20;;;5.78;;
69629;SDS011;56857;52.212;5.496;2024-01-25T12:18:52;29.30;;;6.82;;
69629;SDS011;56857;52.212;5.496;2024-01-25T12:21:19;28.45;;;5.85;;
69629;SDS011;56857;52.212;5.496;2024-01-25T12:23:44;23.23;;;5.78;;
69629;SDS011;56857;52.212;5.496;2024-01-25T12:26:10;27.17;;;6.10;;
69629;SDS011;56857;52.212;5.496;2024-01-25T12:28:36;22.27;;;5.80;;
69629;SDS011;56857;52.212;5.496;2024-01-25T12:31:02;33.55;;;6.95;;
69629;SDS011;56857;52.212;5.496;2024-01-25T12:33:29;26.08;;;6.15;;
69629;SDS011;56857;52.212;5.496;2024-01-25T12:35:55;28.80;;;6.57;;
69629;SDS011;56857;52.212;5.496;2024-01-25T12:38:21;25.95;;;6.50;;
69629;SDS011;56857;52.212;5.496;2024-01-25T12:40:49;32.17;;;7.20;;
69629;SDS011;56857;52.212;5.496;2024-01-25T12:43:15;23.15;;;6.05;;
69629;SDS011;56857;52.212;5.496;2024-01-25T12:45:41;26.70;;;6.07;;
69629;SDS011;56857;52.212;5.496;2024-01-25T12:48:06;24.83;;;6.93;;
69629;SDS011;56857;52.212;5.496;2024-01-25T12:50:32;27.98;;;7.13;;
69629;SDS011;56857;52.212;5.496;2024-01-25T12:52:57;34.85;;;7.03;;
69629;SDS011;56857;52.212;5.496;2024-01-25T12:55:22;27.50;;;6.60;;
69629;SDS011;56857;52.212;5.496;2024-01-25T12:57:48;28.55;;;6.93;;
69629;SDS011;56857;52.212;5.496;2024-01-25T13:00:13;34.10;;;7.10;;
69629;SDS011;56857;52.212;5.496;2024-01-25T13:02:38;24.42;;;7.40;;
69629;SDS011;56857;52.212;5.496;2024-01-25T13:05:04;32.70;;;8.33;;
69629;SDS011;56857;52.212;5.496;2024-01-25T13:07:29;36.35;;;8.52;;
69629;SDS011;56857;52.212;5.496;2024-01-25T13:09:55;29.87;;;7.60;;
69629;SDS011;56857;52.212;5.496;2024-01-25T13:12:20;32.97;;;7.40;;
69629;SDS011;56857;52.212;5.496;2024-01-25T13:14:45;28.03;;;7.63;;
69629;SDS011;56857;52.212;5.496;2024-01-25T13:17:11;27.73;;;6.90;;
69629;SDS011;56857;52.212;5.496;2024-01-25T13:19:36;33.05;;;7.72;;
69629;SDS011;56857;52.212;5.496;2024-01-25T13:22:01;33.33;;;7.75;;
69629;SDS011;56857;52.212;5.496;2024-01-25T13:24:27;36.42;;;7.20;;
69629;SDS011;56857;52.212;5.496;2024-01-25T13:26:52;26.95;;;7.90;;
69629;SDS011;56857;52.212;5.496;2024-01-25T13:29:17;30.10;;;6.68;;
69629;SDS011;56857;52.212;5.496;2024-01-25T13:31:43;27.05;;;7.47;;
69629;SDS011;56857;52.212;5.496;2024-01-25T13:34:08;28.75;;;7.82;;
69629;SDS011;56857;52.212;5.496;2024-01-25T13:36:33;34.25;;;7.47;;
69629;SDS011;56857;52.212;5.496;2024-01-25T13:38:59;33.25;;;7.22;;
69629;SDS011;56857;52.212;5.496;2024-01-25T13:41:24;28.15;;;7.00;;
69629;SDS011;56857;52.212;5.496;2024-01-25T13:43:50;28.60;;;7.30;;
69629;SDS011;56857;52.212;5.496;2024-01-25T13:46:16;29.53;;;7.37;;
69629;SDS011;56857;52.212;5.496;2024-01-25T13:48:41;28.27;;;7.38;;
69629;SDS011;56857;52.212;5.496;2024-01-25T13:51:06;34.07;;;8.87;;
69629;SDS011;56857;52.212;5.496;2024-01-25T13:53:32;32.55;;;7.03;;
69629;SDS011;56857;52.212;5.496;2024-01-25T13:55:57;30.73;;;7.63;;
69629;SDS011;56857;52.212;5.496;2024-01-25T13:58:22;39.20;;;8.35;;
69629;SDS011;56857;52.212;5.496;2024-01-25T14:00:48;23.17;;;6.90;;
69629;SDS011;56857;52.212;5.496;2024-01-25T14:03:14;27.70;;;8.63;;
69629;SDS011;56857;52.212;5.496;2024-01-25T14:05:40;30.92;;;7.00;;
69629;SDS011;56857;52.212;5.496;2024-01-25T14:08:05;31.02;;;8.30;;
69629;SDS011;56857;52.212;5.496;2024-01-25T14:10:31;43.57;;;10.17;;
69629;SDS011;56857;52.212;5.496;2024-01-25T14:12:56;35.50;;;8.77;;
69629;SDS011;56857;52.212;5.496;2024-01-25T14:15:21;29.20;;;8.80;;
69629;SDS011;56857;52.212;5.496;2024-01-25T14:17:47;28.85;;;8.07;;
69629;SDS011;56857;52.212;5.496;2024-01-25T14:20:12;37.20;;;8.40;;
69629;SDS011;56857;52.212;5.496;2024-01-25T14:22:37;30.48;;;8.75;;
69629;SDS011;56857;52.212;5.496;2024-01-25T14:25:03;35.35;;;9.43;;
69629;SDS011;56857;52.212;5.496;2024-01-25T14:27:29;32.53;;;8.75;;
69629;SDS011;56857;52.212;5.496;2024-01-25T14:29:54;21.65;;;8.25;;
69629;SDS011;56857;52.212;5.496;2024-01-25T14:32:19;31.17;;;8.52;;